sensor_id;sensor_type;location;lat;lon;timestamp;temperature;humidity
49441;DHT22;35317;51.978;6.296;2023-02-28T00:03:16;-0.40;96.00
49441;DHT22;35317;51.978;6.296;2023-02-28T00:08:17;-0.30;96.10
49441;DHT22;35317;51.978;6.296;2023-02-28T00:13:17;-0.20;96.20
49441;DHT22;35317;51.978;6.296;2023-02-28T00:18:18;0.00;96.30
49441;DHT22;35317;51.978;6.296;2023-02-28T00:23:19;0.10;96.40
49441;DHT22;35317;51.978;6.296;2023-02-28T00:28:20;0.20;96.40
49441;DHT22;35317;51.978;6.296;2023-02-28T00:33:21;0.30;96.50
49441;DHT22;35317;51.978;6.296;2023-02-28T00:38:22;0.40;96.60
49441;DHT22;35317;51.978;6.296;2023-02-28T00:43:22;0.50;96.70
49441;DHT22;35317;51.978;6.296;2023-02-28T00:48:23;0.60;96.80
49441;DHT22;35317;51.978;6.296;2023-02-28T00:53:24;0.70;96.90
49441;DHT22;35317;51.978;6.296;2023-02-28T00:58:25;0.70;96.90
49441;DHT22;35317;51.978;6.296;2023-02-28T01:03:26;0.80;96.90
49441;DHT22;35317;51.978;6.296;2023-02-28T01:08:27;0.80;96.90
49441;DHT22;35317;51.978;6.296;2023-02-28T01:13:27;0.80;96.90
49441;DHT22;35317;51.978;6.296;2023-02-28T01:18:28;0.90;97.00
49441;DHT22;35317;51.978;6.296;2023-02-28T01:23:29;0.90;97.10
49441;DHT22;35317;51.978;6.296;2023-02-28T01:28:30;0.90;97.20
49441;DHT22;35317;51.978;6.296;2023-02-28T01:33:31;1.00;97.30
49441;DHT22;35317;51.978;6.296;2023-02-28T01:38:33;1.10;97.40
49441;DHT22;35317;51.978;6.296;2023-02-28T01:53:53;1.30;97.40
49441;DHT22;35317;51.978;6.296;2023-02-28T01:58:57;1.40;97.40
49441;DHT22;35317;51.978;6.296;2023-02-28T02:04:02;1.50;97.40
49441;DHT22;35317;51.978;6.296;2023-02-28T02:09:03;1.50;97.30
49441;DHT22;35317;51.978;6.296;2023-02-28T02:19:46;1.70;97.20
49441;DHT22;35317;51.978;6.296;2023-02-28T02:26:04;1.80;97.10
49441;DHT22;35317;51.978;6.296;2023-02-28T02:42:01;1.90;96.70
49441;DHT22;35317;51.978;6.296;2023-02-28T02:47:15;1.90;96.70
49441;DHT22;35317;51.978;6.296;2023-02-28T02:52:22;1.90;96.60
49441;DHT22;35317;51.978;6.296;2023-02-28T02:57:35;2.00;96.60
49441;DHT22;35317;51.978;6.296;2023-02-28T03:02:40;2.00;96.60
49441;DHT22;35317;51.978;6.296;2023-02-28T03:07:41;2.00;96.60
49441;DHT22;35317;51.978;6.296;2023-02-28T03:12:51;2.10;96.60
49441;DHT22;35317;51.978;6.296;2023-02-28T03:18:04;2.10;96.60
49441;DHT22;35317;51.978;6.296;2023-02-28T03:23:23;2.10;96.60
49441;DHT22;35317;51.978;6.296;2023-02-28T03:28:49;2.10;96.60
49441;DHT22;35317;51.978;6.296;2023-02-28T03:34:39;2.10;96.60
49441;DHT22;35317;51.978;6.296;2023-02-28T03:39:35;2.10;96.50
49441;DHT22;35317;51.978;6.296;2023-02-28T03:44:42;2.10;96.50
49441;DHT22;35317;51.978;6.296;2023-02-28T03:55:13;2.10;96.70
49441;DHT22;35317;51.978;6.296;2023-02-28T04:00:17;2.10;96.40
49441;DHT22;35317;51.978;6.296;2023-02-28T04:05:21;2.10;96.40
49441;DHT22;35317;51.978;6.296;2023-02-28T04:10:22;2.00;96.30
49441;DHT22;35317;51.978;6.296;2023-02-28T04:15:23;2.00;96.30
49441;DHT22;35317;51.978;6.296;2023-02-28T04:20:25;2.00;96.40
49441;DHT22;35317;51.978;6.296;2023-02-28T04:25:25;2.10;96.40
49441;DHT22;35317;51.978;6.296;2023-02-28T04:30:26;2.00;96.30
49441;DHT22;35317;51.978;6.296;2023-02-28T04:35:27;2.00;96.30
49441;DHT22;35317;51.978;6.296;2023-02-28T04:40:27;2.00;96.20
49441;DHT22;35317;51.978;6.296;2023-02-28T04:45:28;2.00;96.20
49441;DHT22;35317;51.978;6.296;2023-02-28T04:50:32;2.00;96.20
49441;DHT22;35317;51.978;6.296;2023-02-28T04:55:33;2.00;96.20
49441;DHT22;35317;51.978;6.296;2023-02-28T05:00:34;2.00;96.30
49441;DHT22;35317;51.978;6.296;2023-02-28T05:05:35;2.10;96.30
49441;DHT22;35317;51.978;6.296;2023-02-28T05:10:36;2.10;96.30
49441;DHT22;35317;51.978;6.296;2023-02-28T05:15:37;2.10;96.30
49441;DHT22;35317;51.978;6.296;2023-02-28T05:20:37;2.10;96.30
49441;DHT22;35317;51.978;6.296;2023-02-28T05:25:39;2.10;96.30
49441;DHT22;35317;51.978;6.296;2023-02-28T05:30:40;2.10;96.30
49441;DHT22;35317;51.978;6.296;2023-02-28T05:35:41;2.10;96.30
49441;DHT22;35317;51.978;6.296;2023-02-28T05:40:45;2.10;96.30
49441;DHT22;35317;51.978;6.296;2023-02-28T05:45:45;2.00;96.30
49441;DHT22;35317;51.978;6.296;2023-02-28T05:50:46;2.00;96.40
49441;DHT22;35317;51.978;6.296;2023-02-28T05:55:47;1.90;96.40
49441;DHT22;35317;51.978;6.296;2023-02-28T06:00:48;1.90;96.40
49441;DHT22;35317;51.978;6.296;2023-02-28T06:05:49;1.90;96.40
49441;DHT22;35317;51.978;6.296;2023-02-28T06:10:50;1.80;96.40
49441;DHT22;35317;51.978;6.296;2023-02-28T06:15:54;1.70;96.40
49441;DHT22;35317;51.978;6.296;2023-02-28T06:20:55;1.70;96.50
49441;DHT22;35317;51.978;6.296;2023-02-28T06:25:56;1.70;96.60
49441;DHT22;35317;51.978;6.296;2023-02-28T06:30:59;1.70;96.60
49441;DHT22;35317;51.978;6.296;2023-02-28T06:36:00;1.70;96.60
49441;DHT22;35317;51.978;6.296;2023-02-28T06:41:02;1.80;96.60
49441;DHT22;35317;51.978;6.296;2023-02-28T06:46:06;1.80;96.60
49441;DHT22;35317;51.978;6.296;2023-02-28T06:51:14;1.90;96.50
49441;DHT22;35317;51.978;6.296;2023-02-28T06:56:18;1.90;96.40
49441;DHT22;35317;51.978;6.296;2023-02-28T07:01:20;2.00;96.30
49441;DHT22;35317;51.978;6.296;2023-02-28T07:06:24;2.10;96.10
49441;DHT22;35317;51.978;6.296;2023-02-28T07:11:26;2.20;95.80
49441;DHT22;35317;51.978;6.296;2023-02-28T07:16:27;2.30;95.60
49441;DHT22;35317;51.978;6.296;2023-02-28T07:21:28;2.40;95.30
49441;DHT22;35317;51.978;6.296;2023-02-28T07:26:29;2.30;94.80
49441;DHT22;35317;51.978;6.296;2023-02-28T07:31:30;2.30;94.70
49441;DHT22;35317;51.978;6.296;2023-02-28T07:36:31;2.20;94.70
49441;DHT22;35317;51.978;6.296;2023-02-28T07:41:31;2.10;94.70
49441;DHT22;35317;51.978;6.296;2023-02-28T07:46:34;2.00;94.60
49441;DHT22;35317;51.978;6.296;2023-02-28T07:51:35;2.00;94.50
49441;DHT22;35317;51.978;6.296;2023-02-28T07:56:36;2.00;94.10
49441;DHT22;35317;51.978;6.296;2023-02-28T08:01:37;2.00;94.00
49441;DHT22;35317;51.978;6.296;2023-02-28T08:06:38;2.00;94.00
49441;DHT22;35317;51.978;6.296;2023-02-28T08:11:39;2.00;94.00
49441;DHT22;35317;51.978;6.296;2023-02-28T08:16:39;2.10;93.50
49441;DHT22;35317;51.978;6.296;2023-02-28T08:21:40;2.10;93.20
49441;DHT22;35317;51.978;6.296;2023-02-28T08:26:41;2.20;92.40
49441;DHT22;35317;51.978;6.296;2023-02-28T08:31:42;2.40;92.10
49441;DHT22;35317;51.978;6.296;2023-02-28T08:36:44;2.60;92.00
49441;DHT22;35317;51.978;6.296;2023-02-28T08:41:47;2.70;91.40
49441;DHT22;35317;51.978;6.296;2023-02-28T08:46:48;2.80;91.20
49441;DHT22;35317;51.978;6.296;2023-02-28T08:51:49;2.90;91.10
49441;DHT22;35317;51.978;6.296;2023-02-28T08:56:50;2.90;90.70
49441;DHT22;35317;51.978;6.296;2023-02-28T09:01:50;3.00;89.70
49441;DHT22;35317;51.978;6.296;2023-02-28T09:06:51;3.00;89.20
49441;DHT22;35317;51.978;6.296;2023-02-28T09:11:52;3.10;88.30
49441;DHT22;35317;51.978;6.296;2023-02-28T09:16:53;3.30;82.30
49441;DHT22;35317;51.978;6.296;2023-02-28T09:21:53;3.30;83.00
49441;DHT22;35317;51.978;6.296;2023-02-28T09:26:54;3.50;82.50
49441;DHT22;35317;51.978;6.296;2023-02-28T09:31:55;3.50;80.20
49441;DHT22;35317;51.978;6.296;2023-02-28T09:36:58;3.50;79.50
49441;DHT22;35317;51.978;6.296;2023-02-28T09:41:59;3.60;75.00
49441;DHT22;35317;51.978;6.296;2023-02-28T09:47:27;3.70;74.50
49441;DHT22;35317;51.978;6.296;2023-02-28T09:52:31;3.80;73.10
49441;DHT22;35317;51.978;6.296;2023-02-28T09:57:38;3.90;74.00
49441;DHT22;35317;51.978;6.296;2023-02-28T10:08:27;4.10;71.80
49441;DHT22;35317;51.978;6.296;2023-02-28T10:14:02;4.20;71.40
49441;DHT22;35317;51.978;6.296;2023-02-28T10:25:23;4.50;68.00
49441;DHT22;35317;51.978;6.296;2023-02-28T10:30:26;4.70;65.90
49441;DHT22;35317;51.978;6.296;2023-02-28T10:35:26;4.90;64.90
49441;DHT22;35317;51.978;6.296;2023-02-28T10:40:35;5.00;63.80
49441;DHT22;35317;51.978;6.296;2023-02-28T10:45:36;5.10;61.80
49441;DHT22;35317;51.978;6.296;2023-02-28T10:50:44;5.20;62.50
49441;DHT22;35317;51.978;6.296;2023-02-28T10:56:14;5.30;61.20
49441;DHT22;35317;51.978;6.296;2023-02-28T11:06:33;5.50;60.20
49441;DHT22;35317;51.978;6.296;2023-02-28T11:11:45;5.60;59.30
49441;DHT22;35317;51.978;6.296;2023-02-28T11:16:48;5.70;58.70
49441;DHT22;35317;51.978;6.296;2023-02-28T11:21:56;5.80;59.10
49441;DHT22;35317;51.978;6.296;2023-02-28T11:26:57;5.80;58.50
49441;DHT22;35317;51.978;6.296;2023-02-28T11:37:12;6.10;57.60
49441;DHT22;35317;51.978;6.296;2023-02-28T12:10:01;6.60;54.60
49441;DHT22;35317;51.978;6.296;2023-02-28T12:20:42;6.90;55.50
49441;DHT22;35317;51.978;6.296;2023-02-28T12:36:21;7.50;53.70
49441;DHT22;35317;51.978;6.296;2023-02-28T12:41:34;8.00;52.70
49441;DHT22;35317;51.978;6.296;2023-02-28T12:46:46;8.40;51.20
49441;DHT22;35317;51.978;6.296;2023-02-28T12:51:51;8.60;49.30
49441;DHT22;35317;51.978;6.296;2023-02-28T13:08:04;8.90;48.50
49441;DHT22;35317;51.978;6.296;2023-02-28T13:13:29;9.10;47.40
49441;DHT22;35317;51.978;6.296;2023-02-28T13:18:45;9.20;47.40
49441;DHT22;35317;51.978;6.296;2023-02-28T13:28:58;9.20;47.30
49441;DHT22;35317;51.978;6.296;2023-02-28T13:34:23;9.20;46.60
49441;DHT22;35317;51.978;6.296;2023-02-28T13:55:37;10.10;45.40
49441;DHT22;35317;51.978;6.296;2023-02-28T14:06:26;9.80;46.20
49441;DHT22;35317;51.978;6.296;2023-02-28T14:11:38;9.80;45.90
49441;DHT22;35317;51.978;6.296;2023-02-28T14:27:00;10.00;46.10
49441;DHT22;35317;51.978;6.296;2023-02-28T14:37:34;10.10;44.70
49441;DHT22;35317;51.978;6.296;2023-02-28T14:42:39;10.10;46.10
49441;DHT22;35317;51.978;6.296;2023-02-28T14:47:44;10.20;46.00
49441;DHT22;35317;51.978;6.296;2023-02-28T14:52:45;10.20;46.10
49441;DHT22;35317;51.978;6.296;2023-02-28T14:58:00;9.80;45.80
49441;DHT22;35317;51.978;6.296;2023-02-28T15:03:36;9.60;46.10
49441;DHT22;35317;51.978;6.296;2023-02-28T15:08:38;9.50;46.00
49441;DHT22;35317;51.978;6.296;2023-02-28T15:13:43;9.50;46.00
49441;DHT22;35317;51.978;6.296;2023-02-28T15:18:50;9.40;45.90
49441;DHT22;35317;51.978;6.296;2023-02-28T15:24:16;9.30;46.60
49441;DHT22;35317;51.978;6.296;2023-02-28T15:29:26;9.10;47.20
49441;DHT22;35317;51.978;6.296;2023-02-28T15:34:35;8.80;47.50
49441;DHT22;35317;51.978;6.296;2023-02-28T15:39:42;8.50;47.60
49441;DHT22;35317;51.978;6.296;2023-02-28T15:44:44;8.00;48.20
49441;DHT22;35317;51.978;6.296;2023-02-28T15:49:52;7.70;48.70
49441;DHT22;35317;51.978;6.296;2023-02-28T16:00:24;7.20;49.90
49441;DHT22;35317;51.978;6.296;2023-02-28T16:05:30;7.00;50.40
49441;DHT22;35317;51.978;6.296;2023-02-28T16:10:35;6.90;50.80
49441;DHT22;35317;51.978;6.296;2023-02-28T16:15:38;6.80;51.40
49441;DHT22;35317;51.978;6.296;2023-02-28T16:20:42;6.60;51.50
49441;DHT22;35317;51.978;6.296;2023-02-28T16:25:45;6.50;52.00
49441;DHT22;35317;51.978;6.296;2023-02-28T16:30:51;6.40;52.40
49441;DHT22;35317;51.978;6.296;2023-02-28T16:35:52;6.30;53.00
49441;DHT22;35317;51.978;6.296;2023-02-28T16:40:55;6.10;53.30
49441;DHT22;35317;51.978;6.296;2023-02-28T16:45:59;6.10;53.70
49441;DHT22;35317;51.978;6.296;2023-02-28T16:51:01;6.00;54.20
49441;DHT22;35317;51.978;6.296;2023-02-28T16:56:04;5.80;54.60
49441;DHT22;35317;51.978;6.296;2023-02-28T17:01:07;5.60;55.00
49441;DHT22;35317;51.978;6.296;2023-02-28T17:06:26;5.50;55.50
49441;DHT22;35317;51.978;6.296;2023-02-28T17:11:28;5.30;56.00
49441;DHT22;35317;51.978;6.296;2023-02-28T17:16:30;5.20;56.50
49441;DHT22;35317;51.978;6.296;2023-02-28T17:21:33;5.00;57.20
49441;DHT22;35317;51.978;6.296;2023-02-28T17:26:34;4.80;57.60
49441;DHT22;35317;51.978;6.296;2023-02-28T17:31:35;4.60;58.10
49441;DHT22;35317;51.978;6.296;2023-02-28T17:36:38;4.30;58.70
49441;DHT22;35317;51.978;6.296;2023-02-28T17:41:41;4.10;59.30
49441;DHT22;35317;51.978;6.296;2023-02-28T17:46:42;3.90;59.80
49441;DHT22;35317;51.978;6.296;2023-02-28T17:51:43;3.60;60.60
49441;DHT22;35317;51.978;6.296;2023-02-28T17:56:44;3.30;61.10
49441;DHT22;35317;51.978;6.296;2023-02-28T18:01:45;3.10;62.10
49441;DHT22;35317;51.978;6.296;2023-02-28T18:06:46;2.90;62.70
49441;DHT22;35317;51.978;6.296;2023-02-28T18:11:47;2.70;63.40
49441;DHT22;35317;51.978;6.296;2023-02-28T18:16:52;2.50;64.20
49441;DHT22;35317;51.978;6.296;2023-02-28T18:21:54;2.40;64.70
49441;DHT22;35317;51.978;6.296;2023-02-28T18:26:54;2.20;65.00
49441;DHT22;35317;51.978;6.296;2023-02-28T18:31:55;2.10;65.60
49441;DHT22;35317;51.978;6.296;2023-02-28T18:36:56;2.00;66.20
49441;DHT22;35317;51.978;6.296;2023-02-28T18:41:57;1.90;66.50
49441;DHT22;35317;51.978;6.296;2023-02-28T18:46:58;1.80;67.00
49441;DHT22;35317;51.978;6.296;2023-02-28T18:51:59;1.70;67.80
49441;DHT22;35317;51.978;6.296;2023-02-28T18:57:00;1.60;68.70
49441;DHT22;35317;51.978;6.296;2023-02-28T19:02:01;1.50;69.10
49441;DHT22;35317;51.978;6.296;2023-02-28T19:07:02;1.40;69.60
49441;DHT22;35317;51.978;6.296;2023-02-28T19:12:02;1.30;70.10
49441;DHT22;35317;51.978;6.296;2023-02-28T19:17:03;1.20;70.50
49441;DHT22;35317;51.978;6.296;2023-02-28T19:22:04;1.10;70.80
49441;DHT22;35317;51.978;6.296;2023-02-28T19:27:13;1.00;71.30
49441;DHT22;35317;51.978;6.296;2023-02-28T19:32:19;0.90;71.60
49441;DHT22;35317;51.978;6.296;2023-02-28T19:37:20;0.80;71.90
49441;DHT22;35317;51.978;6.296;2023-02-28T19:42:22;0.80;72.70
49441;DHT22;35317;51.978;6.296;2023-02-28T19:47:22;0.60;72.90
49441;DHT22;35317;51.978;6.296;2023-02-28T19:52:24;0.60;73.30
49441;DHT22;35317;51.978;6.296;2023-02-28T19:57:25;0.40;73.50
49441;DHT22;35317;51.978;6.296;2023-02-28T20:02:26;0.40;74.10
49441;DHT22;35317;51.978;6.296;2023-02-28T20:07:27;0.30;74.70
49441;DHT22;35317;51.978;6.296;2023-02-28T20:12:27;0.20;75.10
49441;DHT22;35317;51.978;6.296;2023-02-28T20:17:28;0.10;75.60
49441;DHT22;35317;51.978;6.296;2023-02-28T20:22:32;0.10;75.90
49441;DHT22;35317;51.978;6.296;2023-02-28T20:27:39;0.00;76.10
49441;DHT22;35317;51.978;6.296;2023-02-28T20:32:40;0.00;76.40
49441;DHT22;35317;51.978;6.296;2023-02-28T20:37:41;-0.10;76.60
49441;DHT22;35317;51.978;6.296;2023-02-28T20:42:42;-0.20;77.10
49441;DHT22;35317;51.978;6.296;2023-02-28T20:47:42;-0.30;77.30
49441;DHT22;35317;51.978;6.296;2023-02-28T20:52:44;-0.30;77.70
49441;DHT22;35317;51.978;6.296;2023-02-28T20:57:47;-0.40;78.20
49441;DHT22;35317;51.978;6.296;2023-02-28T21:02:49;-0.50;78.70
49441;DHT22;35317;51.978;6.296;2023-02-28T21:07:50;-0.50;78.90
49441;DHT22;35317;51.978;6.296;2023-02-28T21:12:50;-0.60;79.10
49441;DHT22;35317;51.978;6.296;2023-02-28T21:17:59;-0.60;79.40
49441;DHT22;35317;51.978;6.296;2023-02-28T21:23:00;-0.70;80.00
49441;DHT22;35317;51.978;6.296;2023-02-28T21:28:00;-0.70;80.40
49441;DHT22;35317;51.978;6.296;2023-02-28T21:33:01;-0.80;80.70
49441;DHT22;35317;51.978;6.296;2023-02-28T21:38:02;-0.80;80.90
49441;DHT22;35317;51.978;6.296;2023-02-28T21:43:06;-0.90;81.20
49441;DHT22;35317;51.978;6.296;2023-02-28T21:48:07;-0.90;81.60
49441;DHT22;35317;51.978;6.296;2023-02-28T21:53:09;-0.90;82.00
49441;DHT22;35317;51.978;6.296;2023-02-28T21:58:11;-1.00;82.20
49441;DHT22;35317;51.978;6.296;2023-02-28T22:03:13;-1.00;82.50
49441;DHT22;35317;51.978;6.296;2023-02-28T22:08:14;-1.10;83.20
49441;DHT22;35317;51.978;6.296;2023-02-28T22:13:15;-1.10;83.60
49441;DHT22;35317;51.978;6.296;2023-02-28T22:18:15;-1.20;83.80
49441;DHT22;35317;51.978;6.296;2023-02-28T22:23:16;-1.20;84.00
49441;DHT22;35317;51.978;6.296;2023-02-28T22:28:17;-1.20;84.30
49441;DHT22;35317;51.978;6.296;2023-02-28T22:33:18;-1.30;84.50
49441;DHT22;35317;51.978;6.296;2023-02-28T22:38:19;-1.30;84.80
49441;DHT22;35317;51.978;6.296;2023-02-28T22:43:20;-1.30;85.00
49441;DHT22;35317;51.978;6.296;2023-02-28T22:48:20;-1.40;85.30
49441;DHT22;35317;51.978;6.296;2023-02-28T22:53:21;-1.40;85.60
49441;DHT22;35317;51.978;6.296;2023-02-28T22:58:22;-1.50;85.90
49441;DHT22;35317;51.978;6.296;2023-02-28T23:03:24;-1.50;86.10
49441;DHT22;35317;51.978;6.296;2023-02-28T23:08:25;-1.60;86.40
49441;DHT22;35317;51.978;6.296;2023-02-28T23:13:26;-1.60;86.70
49441;DHT22;35317;51.978;6.296;2023-02-28T23:18:26;-1.60;86.90
49441;DHT22;35317;51.978;6.296;2023-02-28T23:23:27;-1.60;87.20
49441;DHT22;35317;51.978;6.296;2023-02-28T23:28:28;-1.70;87.40
49441;DHT22;35317;51.978;6.296;2023-02-28T23:33:31;-1.80;87.60
49441;DHT22;35317;51.978;6.296;2023-02-28T23:38:32;-1.80;87.90
49441;DHT22;35317;51.978;6.296;2023-02-28T23:43:33;-1.90;88.70
49441;DHT22;35317;51.978;6.296;2023-02-28T23:48:35;-1.80;88.50
49441;DHT22;35317;51.978;6.296;2023-02-28T23:53:38;-1.90;88.90
49441;DHT22;35317;51.978;6.296;2023-02-28T23:58:41;-1.90;89.30
